sensor_id;sensor_type;location;lat;lon;timestamp;P1;durP1;ratioP1;P2;durP2;ratioP2
18875;SDS011;9570;50.854;13.778;2022-07-06T00:01:21;3.87;;;2.53;;
18875;SDS011;9570;50.854;13.778;2022-07-06T00:03:47;3.30;;;2.70;;
18875;SDS011;9570;50.854;13.778;2022-07-06T00:06:13;6.13;;;2.50;;
18875;SDS011;9570;50.854;13.778;2022-07-06T00:08:38;5.10;;;2.60;;
18875;SDS011;9570;50.854;13.778;2022-07-06T00:11:04;4.67;;;2.50;;
18875;SDS011;9570;50.854;13.778;2022-07-06T00:13:30;5.10;;;2.70;;
18875;SDS011;9570;50.854;13.778;2022-07-06T00:15:56;5.10;;;2.63;;
18875;SDS011;9570;50.854;13.778;2022-07-06T00:18:22;5.90;;;2.60;;
18875;SDS011;9570;50.854;13.778;2022-07-06T00:20:48;11.87;;;2.70;;
18875;SDS011;9570;50.854;13.778;2022-07-06T00:23:13;5.80;;;2.80;;
18875;SDS011;9570;50.854;13.778;2022-07-06T00:25:39;4.43;;;2.97;;
18875;SDS011;9570;50.854;13.778;2022-07-06T00:28:04;4.23;;;2.50;;
18875;SDS011;9570;50.854;13.778;2022-07-06T00:30:30;4.60;;;2.80;;
18875;SDS011;9570;50.854;13.778;2022-07-06T00:32:55;4.80;;;2.37;;
18875;SDS011;9570;50.854;13.778;2022-07-06T00:35:23;4.80;;;2.80;;
18875;SDS011;9570;50.854;13.778;2022-07-06T00:37:51;4.00;;;2.60;;
18875;SDS011;9570;50.854;13.778;2022-07-06T00:40:17;5.77;;;2.70;;
18875;SDS011;9570;50.854;13.778;2022-07-06T00:42:45;4.47;;;2.60;;
18875;SDS011;9570;50.854;13.778;2022-07-06T00:45:12;4.93;;;2.47;;
18875;SDS011;9570;50.854;13.778;2022-07-06T00:47:40;4.90;;;2.43;;
18875;SDS011;9570;50.854;13.778;2022-07-06T00:50:07;3.40;;;2.90;;
18875;SDS011;9570;50.854;13.778;2022-07-06T00:52:43;3.00;;;2.40;;
18875;SDS011;9570;50.854;13.778;2022-07-06T00:55:10;4.80;;;2.50;;
18875;SDS011;9570;50.854;13.778;2022-07-06T00:57:37;5.57;;;2.60;;
18875;SDS011;9570;50.854;13.778;2022-07-06T01:00:04;5.80;;;2.73;;
18875;SDS011;9570;50.854;13.778;2022-07-06T01:02:31;5.77;;;2.33;;
18875;SDS011;9570;50.854;13.778;2022-07-06T01:04:57;3.33;;;2.47;;
18875;SDS011;9570;50.854;13.778;2022-07-06T01:07:23;4.70;;;2.60;;
18875;SDS011;9570;50.854;13.778;2022-07-06T01:09:49;3.40;;;2.63;;
18875;SDS011;9570;50.854;13.778;2022-07-06T01:12:14;5.10;;;2.67;;
18875;SDS011;9570;50.854;13.778;2022-07-06T01:14:40;4.83;;;2.70;;
18875;SDS011;9570;50.854;13.778;2022-07-06T01:17:06;5.87;;;2.50;;
18875;SDS011;9570;50.854;13.778;2022-07-06T01:19:33;5.90;;;2.67;;
18875;SDS011;9570;50.854;13.778;2022-07-06T01:21:58;5.10;;;2.63;;
18875;SDS011;9570;50.854;13.778;2022-07-06T01:24:24;4.00;;;2.67;;
18875;SDS011;9570;50.854;13.778;2022-07-06T01:26:50;3.60;;;2.50;;
18875;SDS011;9570;50.854;13.778;2022-07-06T01:29:16;2.63;;;2.40;;
18875;SDS011;9570;50.854;13.778;2022-07-06T01:31:45;4.63;;;2.80;;
18875;SDS011;9570;50.854;13.778;2022-07-06T01:34:13;3.80;;;2.90;;
18875;SDS011;9570;50.854;13.778;2022-07-06T01:36:39;4.80;;;2.60;;
18875;SDS011;9570;50.854;13.778;2022-07-06T01:39:05;3.33;;;2.60;;
18875;SDS011;9570;50.854;13.778;2022-07-06T01:41:32;2.77;;;2.37;;
18875;SDS011;9570;50.854;13.778;2022-07-06T01:43:58;4.20;;;2.53;;
18875;SDS011;9570;50.854;13.778;2022-07-06T01:46:23;2.60;;;2.40;;
18875;SDS011;9570;50.854;13.778;2022-07-06T01:48:49;2.50;;;2.30;;
18875;SDS011;9570;50.854;13.778;2022-07-06T01:51:14;3.40;;;2.77;;
18875;SDS011;9570;50.854;13.778;2022-07-06T01:53:40;4.57;;;2.77;;
18875;SDS011;9570;50.854;13.778;2022-07-06T01:56:05;4.53;;;2.80;;
18875;SDS011;9570;50.854;13.778;2022-07-06T01:58:31;4.27;;;2.80;;
18875;SDS011;9570;50.854;13.778;2022-07-06T02:00:57;4.07;;;2.70;;
18875;SDS011;9570;50.854;13.778;2022-07-06T02:03:23;4.83;;;2.80;;
18875;SDS011;9570;50.854;13.778;2022-07-06T02:05:49;3.27;;;2.87;;
18875;SDS011;9570;50.854;13.778;2022-07-06T02:08:14;4.67;;;2.57;;
18875;SDS011;9570;50.854;13.778;2022-07-06T02:10:39;4.00;;;2.90;;
18875;SDS011;9570;50.854;13.778;2022-07-06T02:13:05;7.77;;;3.00;;
18875;SDS011;9570;50.854;13.778;2022-07-06T02:15:30;3.53;;;2.40;;
18875;SDS011;9570;50.854;13.778;2022-07-06T02:17:56;3.93;;;2.63;;
18875;SDS011;9570;50.854;13.778;2022-07-06T02:20:21;4.73;;;2.40;;
18875;SDS011;9570;50.854;13.778;2022-07-06T02:22:47;2.40;;;2.20;;
18875;SDS011;9570;50.854;13.778;2022-07-06T02:25:12;2.40;;;2.20;;
18875;SDS011;9570;50.854;13.778;2022-07-06T02:27:38;3.37;;;2.50;;
18875;SDS011;9570;50.854;13.778;2022-07-06T02:30:04;4.50;;;2.27;;
18875;SDS011;9570;50.854;13.778;2022-07-06T02:32:30;2.43;;;2.00;;
18875;SDS011;9570;50.854;13.778;2022-07-06T02:34:56;2.83;;;2.13;;
18875;SDS011;9570;50.854;13.778;2022-07-06T02:37:21;3.47;;;2.40;;
18875;SDS011;9570;50.854;13.778;2022-07-06T02:39:47;4.27;;;2.40;;
18875;SDS011;9570;50.854;13.778;2022-07-06T02:42:12;3.77;;;2.43;;
18875;SDS011;9570;50.854;13.778;2022-07-06T02:44:38;5.93;;;2.40;;
18875;SDS011;9570;50.854;13.778;2022-07-06T02:47:03;2.30;;;2.10;;
18875;SDS011;9570;50.854;13.778;2022-07-06T02:49:29;2.90;;;2.60;;
18875;SDS011;9570;50.854;13.778;2022-07-06T02:51:54;3.27;;;2.20;;
18875;SDS011;9570;50.854;13.778;2022-07-06T02:54:20;4.10;;;2.60;;
18875;SDS011;9570;50.854;13.778;2022-07-06T02:56:45;2.43;;;2.20;;
18875;SDS011;9570;50.854;13.778;2022-07-06T02:59:16;2.57;;;2.27;;
18875;SDS011;9570;50.854;13.778;2022-07-06T03:01:41;5.93;;;2.50;;
18875;SDS011;9570;50.854;13.778;2022-07-06T03:04:07;4.20;;;2.03;;
18875;SDS011;9570;50.854;13.778;2022-07-06T03:06:32;2.87;;;2.27;;
18875;SDS011;9570;50.854;13.778;2022-07-06T03:08:58;2.83;;;2.53;;
18875;SDS011;9570;50.854;13.778;2022-07-06T03:11:23;2.57;;;2.30;;
18875;SDS011;9570;50.854;13.778;2022-07-06T03:13:49;6.03;;;2.20;;
18875;SDS011;9570;50.854;13.778;2022-07-06T03:16:14;2.63;;;2.20;;
18875;SDS011;9570;50.854;13.778;2022-07-06T03:18:40;3.23;;;1.97;;
18875;SDS011;9570;50.854;13.778;2022-07-06T03:21:05;2.97;;;2.00;;
18875;SDS011;9570;50.854;13.778;2022-07-06T03:23:31;2.20;;;2.00;;
18875;SDS011;9570;50.854;13.778;2022-07-06T03:25:56;2.77;;;1.80;;
18875;SDS011;9570;50.854;13.778;2022-07-06T03:28:22;2.60;;;1.93;;
18875;SDS011;9570;50.854;13.778;2022-07-06T03:30:47;2.03;;;1.90;;
18875;SDS011;9570;50.854;13.778;2022-07-06T03:33:13;3.00;;;1.70;;
18875;SDS011;9570;50.854;13.778;2022-07-06T03:35:38;1.90;;;1.80;;
18875;SDS011;9570;50.854;13.778;2022-07-06T03:38:04;2.17;;;2.00;;
18875;SDS011;9570;50.854;13.778;2022-07-06T03:40:29;3.00;;;2.03;;
18875;SDS011;9570;50.854;13.778;2022-07-06T03:42:55;2.20;;;2.00;;
18875;SDS011;9570;50.854;13.778;2022-07-06T03:45:20;2.43;;;2.00;;
18875;SDS011;9570;50.854;13.778;2022-07-06T03:47:46;4.23;;;1.90;;
18875;SDS011;9570;50.854;13.778;2022-07-06T03:50:11;2.43;;;2.10;;
18875;SDS011;9570;50.854;13.778;2022-07-06T03:52:36;2.70;;;1.90;;
18875;SDS011;9570;50.854;13.778;2022-07-06T03:55:07;2.47;;;1.70;;
18875;SDS011;9570;50.854;13.778;2022-07-06T03:57:36;2.07;;;1.90;;
18875;SDS011;9570;50.854;13.778;2022-07-06T04:00:03;4.70;;;2.07;;
18875;SDS011;9570;50.854;13.778;2022-07-06T04:02:29;3.13;;;1.80;;
18875;SDS011;9570;50.854;13.778;2022-07-06T04:04:54;3.67;;;2.00;;
18875;SDS011;9570;50.854;13.778;2022-07-06T04:07:20;11.53;;;2.23;;
18875;SDS011;9570;50.854;13.778;2022-07-06T04:09:46;2.17;;;1.97;;
18875;SDS011;9570;50.854;13.778;2022-07-06T04:12:11;1.87;;;1.70;;
18875;SDS011;9570;50.854;13.778;2022-07-06T04:14:36;3.33;;;1.80;;
18875;SDS011;9570;50.854;13.778;2022-07-06T04:17:02;2.37;;;2.17;;
18875;SDS011;9570;50.854;13.778;2022-07-06T04:19:46;3.77;;;1.90;;
18875;SDS011;9570;50.854;13.778;2022-07-06T04:22:12;1.60;;;1.50;;
18875;SDS011;9570;50.854;13.778;2022-07-06T04:24:37;2.20;;;1.93;;
18875;SDS011;9570;50.854;13.778;2022-07-06T04:27:03;1.90;;;1.80;;
18875;SDS011;9570;50.854;13.778;2022-07-06T04:29:28;2.50;;;1.77;;
18875;SDS011;9570;50.854;13.778;2022-07-06T04:31:53;6.30;;;2.00;;
18875;SDS011;9570;50.854;13.778;2022-07-06T04:34:19;4.70;;;1.90;;
18875;SDS011;9570;50.854;13.778;2022-07-06T04:36:45;2.00;;;1.80;;
18875;SDS011;9570;50.854;13.778;2022-07-06T04:39:10;1.90;;;1.77;;
18875;SDS011;9570;50.854;13.778;2022-07-06T04:41:36;2.13;;;1.97;;
18875;SDS011;9570;50.854;13.778;2022-07-06T04:44:01;2.03;;;1.93;;
18875;SDS011;9570;50.854;13.778;2022-07-06T04:46:27;2.17;;;1.97;;
18875;SDS011;9570;50.854;13.778;2022-07-06T04:48:52;2.87;;;1.90;;
18875;SDS011;9570;50.854;13.778;2022-07-06T04:51:17;3.03;;;2.10;;
18875;SDS011;9570;50.854;13.778;2022-07-06T04:53:43;2.73;;;1.87;;
18875;SDS011;9570;50.854;13.778;2022-07-06T04:56:08;2.00;;;1.90;;
18875;SDS011;9570;50.854;13.778;2022-07-06T04:58:34;3.57;;;2.23;;
18875;SDS011;9570;50.854;13.778;2022-07-06T05:00:59;3.00;;;2.17;;
18875;SDS011;9570;50.854;13.778;2022-07-06T05:03:25;2.33;;;2.13;;
18875;SDS011;9570;50.854;13.778;2022-07-06T05:05:50;2.30;;;2.10;;
18875;SDS011;9570;50.854;13.778;2022-07-06T05:08:16;5.20;;;2.37;;
18875;SDS011;9570;50.854;13.778;2022-07-06T05:10:41;2.50;;;2.30;;
18875;SDS011;9570;50.854;13.778;2022-07-06T05:13:07;3.53;;;2.20;;
18875;SDS011;9570;50.854;13.778;2022-07-06T05:15:32;2.63;;;2.07;;
18875;SDS011;9570;50.854;13.778;2022-07-06T05:17:58;2.80;;;2.33;;
18875;SDS011;9570;50.854;13.778;2022-07-06T05:20:23;2.40;;;2.20;;
18875;SDS011;9570;50.854;13.778;2022-07-06T05:22:49;3.10;;;2.60;;
18875;SDS011;9570;50.854;13.778;2022-07-06T05:25:14;4.20;;;2.60;;
18875;SDS011;9570;50.854;13.778;2022-07-06T05:27:40;5.77;;;2.70;;
18875;SDS011;9570;50.854;13.778;2022-07-06T05:30:05;2.73;;;2.33;;
18875;SDS011;9570;50.854;13.778;2022-07-06T05:32:31;2.53;;;2.33;;
18875;SDS011;9570;50.854;13.778;2022-07-06T05:34:57;4.57;;;2.60;;
18875;SDS011;9570;50.854;13.778;2022-07-06T05:37:22;3.40;;;2.73;;
18875;SDS011;9570;50.854;13.778;2022-07-06T05:39:48;2.53;;;2.33;;
18875;SDS011;9570;50.854;13.778;2022-07-06T05:42:15;4.87;;;2.60;;
18875;SDS011;9570;50.854;13.778;2022-07-06T05:44:40;5.77;;;3.10;;
18875;SDS011;9570;50.854;13.778;2022-07-06T05:47:06;3.00;;;2.70;;
18875;SDS011;9570;50.854;13.778;2022-07-06T05:49:52;3.53;;;3.07;;
18875;SDS011;9570;50.854;13.778;2022-07-06T05:52:36;4.07;;;3.07;;
18875;SDS011;9570;50.854;13.778;2022-07-06T05:55:02;3.77;;;3.10;;
18875;SDS011;9570;50.854;13.778;2022-07-06T05:57:27;4.50;;;2.83;;
18875;SDS011;9570;50.854;13.778;2022-07-06T05:59:53;4.70;;;3.10;;
18875;SDS011;9570;50.854;13.778;2022-07-06T06:02:18;4.10;;;2.80;;
18875;SDS011;9570;50.854;13.778;2022-07-06T06:04:44;3.73;;;2.40;;
18875;SDS011;9570;50.854;13.778;2022-07-06T06:07:09;3.43;;;2.40;;
18875;SDS011;9570;50.854;13.778;2022-07-06T06:09:35;3.00;;;2.33;;
18875;SDS011;9570;50.854;13.778;2022-07-06T06:12:00;4.10;;;2.47;;
18875;SDS011;9570;50.854;13.778;2022-07-06T06:14:26;3.23;;;2.10;;
18875;SDS011;9570;50.854;13.778;2022-07-06T06:16:51;4.67;;;2.23;;
18875;SDS011;9570;50.854;13.778;2022-07-06T06:19:17;2.93;;;2.00;;
18875;SDS011;9570;50.854;13.778;2022-07-06T06:21:42;6.07;;;2.00;;
18875;SDS011;9570;50.854;13.778;2022-07-06T06:24:08;7.23;;;1.87;;
18875;SDS011;9570;50.854;13.778;2022-07-06T06:26:33;3.37;;;2.03;;
18875;SDS011;9570;50.854;13.778;2022-07-06T06:28:59;3.40;;;2.20;;
18875;SDS011;9570;50.854;13.778;2022-07-06T06:31:24;3.70;;;2.10;;
18875;SDS011;9570;50.854;13.778;2022-07-06T06:33:50;2.40;;;2.07;;
18875;SDS011;9570;50.854;13.778;2022-07-06T06:36:15;3.60;;;2.10;;
18875;SDS011;9570;50.854;13.778;2022-07-06T06:38:41;7.63;;;2.10;;
18875;SDS011;9570;50.854;13.778;2022-07-06T06:41:07;3.80;;;1.97;;
18875;SDS011;9570;50.854;13.778;2022-07-06T06:43:32;2.83;;;1.80;;
18875;SDS011;9570;50.854;13.778;2022-07-06T06:45:58;2.30;;;2.07;;
18875;SDS011;9570;50.854;13.778;2022-07-06T06:48:23;4.00;;;2.00;;
18875;SDS011;9570;50.854;13.778;2022-07-06T06:50:49;3.27;;;2.00;;
18875;SDS011;9570;50.854;13.778;2022-07-06T06:53:14;3.83;;;1.90;;
18875;SDS011;9570;50.854;13.778;2022-07-06T06:55:40;2.33;;;1.67;;
18875;SDS011;9570;50.854;13.778;2022-07-06T06:58:05;4.07;;;1.97;;
18875;SDS011;9570;50.854;13.778;2022-07-06T07:00:31;5.60;;;2.07;;
18875;SDS011;9570;50.854;13.778;2022-07-06T07:02:56;3.63;;;1.57;;
18875;SDS011;9570;50.854;13.778;2022-07-06T07:05:22;7.13;;;1.67;;
18875;SDS011;9570;50.854;13.778;2022-07-06T07:07:48;4.43;;;2.00;;
18875;SDS011;9570;50.854;13.778;2022-07-06T07:10:13;4.60;;;1.53;;
18875;SDS011;9570;50.854;13.778;2022-07-06T07:12:45;7.77;;;1.67;;
18875;SDS011;9570;50.854;13.778;2022-07-06T07:15:11;2.73;;;1.67;;
18875;SDS011;9570;50.854;13.778;2022-07-06T07:17:36;5.33;;;1.50;;
18875;SDS011;9570;50.854;13.778;2022-07-06T07:20:02;3.33;;;1.53;;
18875;SDS011;9570;50.854;13.778;2022-07-06T07:22:29;3.33;;;1.73;;
18875;SDS011;9570;50.854;13.778;2022-07-06T07:24:54;3.73;;;1.90;;
18875;SDS011;9570;50.854;13.778;2022-07-06T07:27:20;2.87;;;1.80;;
18875;SDS011;9570;50.854;13.778;2022-07-06T07:29:45;3.33;;;2.00;;
18875;SDS011;9570;50.854;13.778;2022-07-06T07:32:11;6.07;;;1.87;;
18875;SDS011;9570;50.854;13.778;2022-07-06T07:34:36;4.63;;;1.97;;
18875;SDS011;9570;50.854;13.778;2022-07-06T07:37:02;3.10;;;1.90;;
18875;SDS011;9570;50.854;13.778;2022-07-06T07:39:27;2.73;;;1.60;;
18875;SDS011;9570;50.854;13.778;2022-07-06T07:41:53;3.77;;;1.63;;
18875;SDS011;9570;50.854;13.778;2022-07-06T07:44:18;2.63;;;1.53;;
18875;SDS011;9570;50.854;13.778;2022-07-06T07:46:44;4.17;;;1.63;;
18875;SDS011;9570;50.854;13.778;2022-07-06T07:49:09;4.10;;;1.93;;
18875;SDS011;9570;50.854;13.778;2022-07-06T07:51:35;3.30;;;1.70;;
18875;SDS011;9570;50.854;13.778;2022-07-06T07:54:00;6.77;;;1.70;;
18875;SDS011;9570;50.854;13.778;2022-07-06T07:56:26;3.43;;;1.40;;
18875;SDS011;9570;50.854;13.778;2022-07-06T07:58:51;4.83;;;1.67;;
18875;SDS011;9570;50.854;13.778;2022-07-06T08:01:17;4.33;;;1.50;;
18875;SDS011;9570;50.854;13.778;2022-07-06T08:03:42;2.60;;;1.53;;
18875;SDS011;9570;50.854;13.778;2022-07-06T08:06:08;4.40;;;1.90;;
18875;SDS011;9570;50.854;13.778;2022-07-06T08:08:33;5.90;;;1.63;;
18875;SDS011;9570;50.854;13.778;2022-07-06T08:10:59;2.97;;;1.63;;
18875;SDS011;9570;50.854;13.778;2022-07-06T08:13:24;3.87;;;1.73;;
18875;SDS011;9570;50.854;13.778;2022-07-06T08:15:50;3.50;;;1.77;;
18875;SDS011;9570;50.854;13.778;2022-07-06T08:18:15;4.13;;;1.50;;
18875;SDS011;9570;50.854;13.778;2022-07-06T08:20:40;4.40;;;1.60;;
18875;SDS011;9570;50.854;13.778;2022-07-06T08:23:06;2.83;;;1.67;;
18875;SDS011;9570;50.854;13.778;2022-07-06T08:25:31;2.20;;;1.40;;
18875;SDS011;9570;50.854;13.778;2022-07-06T08:27:57;3.10;;;1.70;;
18875;SDS011;9570;50.854;13.778;2022-07-06T08:30:23;3.20;;;1.60;;
18875;SDS011;9570;50.854;13.778;2022-07-06T08:32:49;3.77;;;1.50;;
18875;SDS011;9570;50.854;13.778;2022-07-06T08:35:14;2.23;;;1.50;;
18875;SDS011;9570;50.854;13.778;2022-07-06T08:37:40;4.40;;;2.23;;
18875;SDS011;9570;50.854;13.778;2022-07-06T08:40:05;2.90;;;1.90;;
18875;SDS011;9570;50.854;13.778;2022-07-06T08:42:33;2.83;;;1.90;;
18875;SDS011;9570;50.854;13.778;2022-07-06T08:45:00;6.13;;;1.80;;
18875;SDS011;9570;50.854;13.778;2022-07-06T08:47:30;3.87;;;1.77;;
18875;SDS011;9570;50.854;13.778;2022-07-06T08:49:56;4.27;;;1.70;;
18875;SDS011;9570;50.854;13.778;2022-07-06T09:02:12;3.70;;;1.40;;
18875;SDS011;9570;50.854;13.778;2022-07-06T09:04:38;3.63;;;1.27;;
18875;SDS011;9570;50.854;13.778;2022-07-06T09:07:07;1.90;;;1.00;;
18875;SDS011;9570;50.854;13.778;2022-07-06T09:09:32;4.43;;;1.40;;
18875;SDS011;9570;50.854;13.778;2022-07-06T09:11:58;2.47;;;1.13;;
18875;SDS011;9570;50.854;13.778;2022-07-06T09:14:24;4.37;;;1.10;;
18875;SDS011;9570;50.854;13.778;2022-07-06T09:17:00;2.83;;;1.20;;
18875;SDS011;9570;50.854;13.778;2022-07-06T09:19:28;2.73;;;1.13;;
18875;SDS011;9570;50.854;13.778;2022-07-06T09:21:55;4.80;;;1.20;;
18875;SDS011;9570;50.854;13.778;2022-07-06T09:24:20;3.53;;;1.43;;
18875;SDS011;9570;50.854;13.778;2022-07-06T09:26:47;2.57;;;0.93;;
18875;SDS011;9570;50.854;13.778;2022-07-06T09:29:12;2.70;;;1.10;;
18875;SDS011;9570;50.854;13.778;2022-07-06T09:31:39;2.13;;;1.00;;
18875;SDS011;9570;50.854;13.778;2022-07-06T09:34:06;2.50;;;1.10;;
18875;SDS011;9570;50.854;13.778;2022-07-06T09:39:19;3.20;;;1.10;;
18875;SDS011;9570;50.854;13.778;2022-07-06T09:41:47;3.00;;;1.10;;
18875;SDS011;9570;50.854;13.778;2022-07-06T09:44:20;1.83;;;1.10;;
18875;SDS011;9570;50.854;13.778;2022-07-06T09:46:47;3.20;;;1.20;;
18875;SDS011;9570;50.854;13.778;2022-07-06T09:49:16;2.37;;;1.20;;
18875;SDS011;9570;50.854;13.778;2022-07-06T09:51:43;4.27;;;1.30;;
18875;SDS011;9570;50.854;13.778;2022-07-06T09:54:10;1.77;;;1.17;;
18875;SDS011;9570;50.854;13.778;2022-07-06T09:56:37;1.80;;;1.10;;
18875;SDS011;9570;50.854;13.778;2022-07-06T09:59:10;3.53;;;1.60;;
18875;SDS011;9570;50.854;13.778;2022-07-06T10:01:39;4.60;;;1.47;;
18875;SDS011;9570;50.854;13.778;2022-07-06T10:04:06;2.30;;;1.33;;
18875;SDS011;9570;50.854;13.778;2022-07-06T10:06:33;3.27;;;1.20;;
18875;SDS011;9570;50.854;13.778;2022-07-06T10:08:59;3.83;;;1.40;;
18875;SDS011;9570;50.854;13.778;2022-07-06T10:11:25;2.20;;;1.30;;
18875;SDS011;9570;50.854;13.778;2022-07-06T10:13:55;2.60;;;0.93;;
18875;SDS011;9570;50.854;13.778;2022-07-06T10:16:25;3.67;;;1.30;;
18875;SDS011;9570;50.854;13.778;2022-07-06T10:18:51;1.60;;;1.10;;
18875;SDS011;9570;50.854;13.778;2022-07-06T10:21:21;4.37;;;1.40;;
18875;SDS011;9570;50.854;13.778;2022-07-06T10:23:48;5.37;;;1.30;;
18875;SDS011;9570;50.854;13.778;2022-07-06T10:26:14;2.17;;;1.40;;
18875;SDS011;9570;50.854;13.778;2022-07-06T10:28:41;4.47;;;1.30;;
18875;SDS011;9570;50.854;13.778;2022-07-06T10:31:07;3.07;;;1.30;;
18875;SDS011;9570;50.854;13.778;2022-07-06T10:33:33;3.27;;;1.20;;
18875;SDS011;9570;50.854;13.778;2022-07-06T10:36:00;2.80;;;1.30;;
18875;SDS011;9570;50.854;13.778;2022-07-06T10:38:32;3.50;;;1.30;;
18875;SDS011;9570;50.854;13.778;2022-07-06T10:41:03;2.33;;;1.30;;
18875;SDS011;9570;50.854;13.778;2022-07-06T10:43:52;2.20;;;1.10;;
18875;SDS011;9570;50.854;13.778;2022-07-06T10:46:17;3.43;;;1.20;;
18875;SDS011;9570;50.854;13.778;2022-07-06T10:48:45;3.20;;;1.10;;
18875;SDS011;9570;50.854;13.778;2022-07-06T10:51:13;5.50;;;1.40;;
18875;SDS011;9570;50.854;13.778;2022-07-06T10:53:49;2.73;;;1.30;;
18875;SDS011;9570;50.854;13.778;2022-07-06T10:56:21;4.50;;;1.50;;
18875;SDS011;9570;50.854;13.778;2022-07-06T10:59:09;1.80;;;1.47;;
18875;SDS011;9570;50.854;13.778;2022-07-06T11:01:39;1.77;;;1.10;;
18875;SDS011;9570;50.854;13.778;2022-07-06T11:04:06;2.70;;;1.30;;
18875;SDS011;9570;50.854;13.778;2022-07-06T11:06:33;3.47;;;1.30;;
18875;SDS011;9570;50.854;13.778;2022-07-06T11:09:02;3.87;;;1.20;;
18875;SDS011;9570;50.854;13.778;2022-07-06T11:14:18;2.33;;;1.30;;
18875;SDS011;9570;50.854;13.778;2022-07-06T11:19:12;2.30;;;1.60;;
18875;SDS011;9570;50.854;13.778;2022-07-06T11:21:50;2.00;;;1.37;;
18875;SDS011;9570;50.854;13.778;2022-07-06T11:24:29;5.37;;;1.60;;
18875;SDS011;9570;50.854;13.778;2022-07-06T11:26:58;4.30;;;1.30;;
18875;SDS011;9570;50.854;13.778;2022-07-06T11:29:26;5.10;;;1.40;;
18875;SDS011;9570;50.854;13.778;2022-07-06T11:31:53;3.10;;;1.30;;
18875;SDS011;9570;50.854;13.778;2022-07-06T11:34:27;4.60;;;1.40;;
18875;SDS011;9570;50.854;13.778;2022-07-06T11:36:59;2.13;;;1.17;;
18875;SDS011;9570;50.854;13.778;2022-07-06T11:39:29;1.97;;;1.13;;
18875;SDS011;9570;50.854;13.778;2022-07-06T11:41:56;3.27;;;1.30;;
18875;SDS011;9570;50.854;13.778;2022-07-06T11:44:22;4.60;;;1.30;;
18875;SDS011;9570;50.854;13.778;2022-07-06T11:46:48;2.97;;;1.40;;
18875;SDS011;9570;50.854;13.778;2022-07-06T11:49:14;7.53;;;1.40;;
18875;SDS011;9570;50.854;13.778;2022-07-06T11:51:40;4.37;;;1.37;;
18875;SDS011;9570;50.854;13.778;2022-07-06T11:54:08;3.63;;;1.30;;
18875;SDS011;9570;50.854;13.778;2022-07-06T11:56:37;3.27;;;1.10;;
18875;SDS011;9570;50.854;13.778;2022-07-06T11:59:10;3.20;;;1.30;;
18875;SDS011;9570;50.854;13.778;2022-07-06T12:01:35;7.23;;;1.47;;
18875;SDS011;9570;50.854;13.778;2022-07-06T12:04:06;2.33;;;1.60;;
18875;SDS011;9570;50.854;13.778;2022-07-06T12:06:32;3.30;;;1.70;;
18875;SDS011;9570;50.854;13.778;2022-07-06T12:08:59;1.67;;;1.40;;
18875;SDS011;9570;50.854;13.778;2022-07-06T12:11:29;2.83;;;1.40;;
18875;SDS011;9570;50.854;13.778;2022-07-06T12:13:57;3.47;;;1.23;;
18875;SDS011;9570;50.854;13.778;2022-07-06T12:16:35;8.50;;;1.40;;
18875;SDS011;9570;50.854;13.778;2022-07-06T12:19:02;2.70;;;1.30;;
18875;SDS011;9570;50.854;13.778;2022-07-06T12:21:28;3.07;;;1.40;;
18875;SDS011;9570;50.854;13.778;2022-07-06T12:23:55;2.70;;;1.40;;
18875;SDS011;9570;50.854;13.778;2022-07-06T12:26:22;4.17;;;1.70;;
18875;SDS011;9570;50.854;13.778;2022-07-06T12:29:03;5.70;;;1.40;;
18875;SDS011;9570;50.854;13.778;2022-07-06T12:31:38;3.20;;;1.40;;
18875;SDS011;9570;50.854;13.778;2022-07-06T12:34:21;3.13;;;1.30;;
18875;SDS011;9570;50.854;13.778;2022-07-06T12:36:55;2.77;;;1.47;;
18875;SDS011;9570;50.854;13.778;2022-07-06T12:39:28;2.03;;;1.27;;
18875;SDS011;9570;50.854;13.778;2022-07-06T12:42:01;3.17;;;1.40;;
18875;SDS011;9570;50.854;13.778;2022-07-06T12:44:28;3.53;;;1.10;;
18875;SDS011;9570;50.854;13.778;2022-07-06T12:47:01;5.07;;;1.37;;
18875;SDS011;9570;50.854;13.778;2022-07-06T12:49:28;3.97;;;1.50;;
18875;SDS011;9570;50.854;13.778;2022-07-06T12:51:55;4.40;;;1.47;;
18875;SDS011;9570;50.854;13.778;2022-07-06T12:54:29;3.20;;;1.30;;
18875;SDS011;9570;50.854;13.778;2022-07-06T12:57:01;1.90;;;1.40;;
18875;SDS011;9570;50.854;13.778;2022-07-06T12:59:28;4.50;;;1.40;;
18875;SDS011;9570;50.854;13.778;2022-07-06T13:01:54;2.87;;;1.53;;
18875;SDS011;9570;50.854;13.778;2022-07-06T13:04:27;3.33;;;1.40;;
18875;SDS011;9570;50.854;13.778;2022-07-06T13:06:53;1.63;;;1.10;;
18875;SDS011;9570;50.854;13.778;2022-07-06T13:09:20;2.90;;;1.20;;
18875;SDS011;9570;50.854;13.778;2022-07-06T13:11:46;4.23;;;1.20;;
18875;SDS011;9570;50.854;13.778;2022-07-06T13:14:16;4.77;;;1.57;;
18875;SDS011;9570;50.854;13.778;2022-07-06T13:16:43;2.83;;;1.30;;
18875;SDS011;9570;50.854;13.778;2022-07-06T13:19:10;2.60;;;1.37;;
18875;SDS011;9570;50.854;13.778;2022-07-06T13:21:35;4.23;;;1.30;;
18875;SDS011;9570;50.854;13.778;2022-07-06T13:24:01;2.93;;;1.60;;
18875;SDS011;9570;50.854;13.778;2022-07-06T13:26:27;2.90;;;1.30;;
18875;SDS011;9570;50.854;13.778;2022-07-06T13:28:54;3.27;;;1.37;;
18875;SDS011;9570;50.854;13.778;2022-07-06T13:31:20;4.13;;;1.50;;
18875;SDS011;9570;50.854;13.778;2022-07-06T13:33:45;3.07;;;1.20;;
18875;SDS011;9570;50.854;13.778;2022-07-06T13:36:10;2.47;;;1.20;;
18875;SDS011;9570;50.854;13.778;2022-07-06T13:38:36;4.00;;;1.50;;
18875;SDS011;9570;50.854;13.778;2022-07-06T13:41:01;1.87;;;1.20;;
18875;SDS011;9570;50.854;13.778;2022-07-06T13:43:27;4.00;;;1.10;;
18875;SDS011;9570;50.854;13.778;2022-07-06T13:46:00;2.83;;;1.20;;
18875;SDS011;9570;50.854;13.778;2022-07-06T13:48:27;3.53;;;1.13;;
18875;SDS011;9570;50.854;13.778;2022-07-06T13:50:53;2.20;;;1.20;;
18875;SDS011;9570;50.854;13.778;2022-07-06T13:53:18;4.50;;;1.50;;
18875;SDS011;9570;50.854;13.778;2022-07-06T13:55:44;3.10;;;1.30;;
18875;SDS011;9570;50.854;13.778;2022-07-06T13:58:09;5.13;;;1.60;;
18875;SDS011;9570;50.854;13.778;2022-07-06T14:00:35;4.63;;;1.30;;
18875;SDS011;9570;50.854;13.778;2022-07-06T14:03:00;3.83;;;1.30;;
18875;SDS011;9570;50.854;13.778;2022-07-06T14:05:28;2.13;;;1.20;;
18875;SDS011;9570;50.854;13.778;2022-07-06T14:07:54;1.43;;;1.00;;
18875;SDS011;9570;50.854;13.778;2022-07-06T14:10:20;6.23;;;1.57;;
18875;SDS011;9570;50.854;13.778;2022-07-06T14:12:45;3.00;;;1.20;;
18875;SDS011;9570;50.854;13.778;2022-07-06T14:15:11;2.47;;;1.23;;
18875;SDS011;9570;50.854;13.778;2022-07-06T14:17:36;3.67;;;1.20;;
18875;SDS011;9570;50.854;13.778;2022-07-06T14:20:02;1.70;;;1.10;;
18875;SDS011;9570;50.854;13.778;2022-07-06T14:22:28;5.63;;;1.30;;
18875;SDS011;9570;50.854;13.778;2022-07-06T14:24:53;4.10;;;1.23;;
18875;SDS011;9570;50.854;13.778;2022-07-06T14:27:19;1.90;;;1.10;;
18875;SDS011;9570;50.854;13.778;2022-07-06T14:29:44;4.33;;;1.03;;
18875;SDS011;9570;50.854;13.778;2022-07-06T14:32:09;2.40;;;1.10;;
18875;SDS011;9570;50.854;13.778;2022-07-06T14:34:35;1.80;;;1.17;;
18875;SDS011;9570;50.854;13.778;2022-07-06T14:37:00;2.00;;;1.30;;
18875;SDS011;9570;50.854;13.778;2022-07-06T14:39:26;2.10;;;1.30;;
18875;SDS011;9570;50.854;13.778;2022-07-06T14:41:51;2.53;;;1.20;;
18875;SDS011;9570;50.854;13.778;2022-07-06T14:44:17;5.50;;;1.30;;
18875;SDS011;9570;50.854;13.778;2022-07-06T14:46:42;3.87;;;1.37;;
18875;SDS011;9570;50.854;13.778;2022-07-06T14:49:08;3.13;;;1.47;;
18875;SDS011;9570;50.854;13.778;2022-07-06T14:51:33;3.57;;;1.53;;
18875;SDS011;9570;50.854;13.778;2022-07-06T14:53:58;2.77;;;1.30;;
18875;SDS011;9570;50.854;13.778;2022-07-06T14:56:24;2.17;;;1.10;;
18875;SDS011;9570;50.854;13.778;2022-07-06T14:58:49;3.13;;;1.33;;
18875;SDS011;9570;50.854;13.778;2022-07-06T15:01:15;2.63;;;1.30;;
18875;SDS011;9570;50.854;13.778;2022-07-06T15:03:40;1.67;;;1.20;;